首页
METAR-TAF:

METAR-TAF

机场 :

布莱斯, 加利福尼亚州, 美国

纬度: 33-37-09N, 经度: 114-43-01W, 海拔: 121米

当前天气观测

该预报发布于1小时和1分钟前的14:52 UTC
风速8节,风向西北
温度 9°C
湿度 49%
气压 1015 hPa
能見度: 16.1公里
天空无云

METAR: KBLH 291452Z AUTO 31008KT 10SM CLR 09/M01 A2998 RMK AO2 SLP148 T00941011 53009

时间: 07:53 (15:53 UTC)

预报

该预报发布于4小时和16分钟前的11:37 UTC
预报有效从29日的 12点(UTC)到 30日的 12点(UTC)
风速5节,风向西转西北
能見度: 10公里
散云层高于20000英尺
从 29日的 1700点(UTC)
风速22节,风向北转西北,有时为30节阵风
能見度: 10公里
天空无云
从 30日的 0300点(UTC)
风速18节,风向
能見度: 10公里
天空无云

TAF: KBLH 291137Z 2912/3012 30005KT P6SM SCT200 FM291700 34022G30KT P6SM SKC FM300300 35018KT P6SM SKC

超过4000个机场的气象观测和天气预报(METAR&TAF报告)。

可查询的气象台以黄色和红色小点在地图上表示。

将鼠标移到小点上方,可查看气象台名称。

然后点击查看天气观测和预报。

如需切换地图:点击带黑十字的绿色按钮放大地图;点击带横线的绿色按钮缩小地图;或者点击绿色箭头查看邻近地区的地图。


METAR-TAF: